Open Tracker +

ok2pll
Příspěvky: 13
Registrován: úte 30. čer 2009 8:56:15

Re: Open Tracker +

Příspěvek od ok2pll » pát 16. říj 2009 15:45:29

Závada konečně odstraněna-byla to nějaká chyba v paměti procesoru,nakonec se mi to podařilo odstranit tak,že jsem se z konfiguračního programu připojil na web výrobce,stáhl poslední verzi firmware,nahrál a po zapsání do paměti procesoru vše OK.Takže pokud by se někomu vyskytla tato závada je jasné,jak na ni.
ok2slc
Příspěvky: 115
Registrován: stř 11. bře 2009 8:44:57

Re: Open Tracker +

Příspěvek od ok2slc » čtv 18. bře 2010 21:14:04

Ahojte,
chci se zeptat uživatelů OT1+ jestli měli nějaké problémy s GPS. Nějak nemohu OT1+ "spřátelit" s GPS Leadtek LR 9450. Prostě s ním nekomunikuje. Zapojený to mám předpokládám dobře, protože s FoxDigi to normálně spolupracuje. Jediné co mě napadá je zkusit ještě MAX232.
ok2ila
Příspěvky: 218
Registrován: úte 17. bře 2009 14:28:02
Bydliště: JN89WW

Re: Open Tracker +

Příspěvek od ok2ila » čtv 18. bře 2010 22:19:52

ok2slc píše:Ahojte,
chci se zeptat uživatelů OT1+ jestli měli nějaké problémy s GPS. Nějak nemohu OT1+ "spřátelit" s GPS Leadtek LR 9450. Prostě s ním nekomunikuje. Zapojený to mám předpokládám dobře, protože s FoxDigi to normálně spolupracuje. Jediné co mě napadá je zkusit ještě MAX232.
Přesně tuhle kombinaci jsem zkoušel a problém nebyl. Asi to bude nějaká blbost.
OK2ZO
Příspěvky: 486
Registrován: ned 08. bře 2009 18:27:54
Bydliště: Adamov
Kontaktovat uživatele:

Re: Open Tracker +

Příspěvek od OK2ZO » pát 19. bře 2010 6:55:12

Si myslim, ze mas nekde prohozeny nejaky draty..
OK2ZO Libor/Adamov
ok2slc
Příspěvky: 115
Registrován: stř 11. bře 2009 8:44:57

Re: Open Tracker +

Příspěvek od ok2slc » pát 19. bře 2010 22:05:43

Ahojte,
tak jsem celkem v koncích, buďto je to chyba kusu OT1+ nebo fakt už fakt nevím.

Odposlouchal jsem TTL na U3 (procesor) pin 13 a je tam krásná komunikace GPS:
$GPGGA,132226.000,4909.6692,N,01620.7160,E,1,06,1.7,396.7,M,43.7,M,0.0,0000*75
$GPRMC,132226.000,A,4909.6692,N,01620.7160,E,0.00,182.13,190310,,,A*61
$GPVTG,182.13,T,,M,0.00,N,0.0,K,A*04
$GPGGA,132227.000,4909.6692,N,01620.7160,E,1,06,1.7,396.7,M,43.7,M,0.0,0000*74
$GPRMC,132227.000,A,4909.6692,N,01620.7160,E,0.00,182.13,190310,,,A*60
$GPVTG,182.13,T,,M,0.00,N,0.0,K,A*04
$GPGGA,132228.000,4909.6692,N,01620.7160,E,1,05,1.7,396.7,M,43.7,M,0.0,0000*78
$GPGSA,A,3,16,20,23,02,10,,,,,,,,2.8,1.7,2.2*39
$GPGSV,3,1,10,13,84,322,16,23,59,061,28,04,50,252,13,07,36,182,20*7D
$GPGSV,3,2,10,20,32,121,21,02,27,308,22,10,16,298,18,16,16,063,33*7E
$GPGSV,3,3,10,32,05,115,28,08,05,196,21*73
$GPRMC,132228.000,A,4909.6692,N,01620.7160,E,0.00,182.13,190310,,,A*6F
$GPVTG,182.13,T,,M,0.00,N,0.0,K,A*04
$GPGGA,132229.000,4909.6692,N,01620.7160,E,1,05,1.7,396.7,M,43.7,M,0.0,0000*79
$GPRMC,132229.000,A,4909.6692,N,01620.7160,E,0.00,182.13,190310,,,A*6E
$GPVTG,182.13,T,,M,0.00,N,0.0,K,A*04
$GPGGA,132230.000,4909.6692,N,01620.7160,E,1,06,1.7,396.7,M,43.7,M,0.0,0000*72
$GPRMC,132230.000,A,4909.6692,N,01620.7160,E,0.00,182.13,190310,,,A*66
$GPVTG,182.13,T,,M,0.00,N,0.0,K,A*04
$GPGGA,132231.000,4909.6692,N,01620.7160,E,1,05,1.7,396.7,M,43.7,M,0.0,0000*70
$GPRMC,132231.000,A,4909.6692,N,01620.7160,E,0.00,182.13,190310,,,A*67
$GPVTG,182.13,T,,M,0.00,N,0.0,K,A*04
$GPGGA,132232.000,4909.6692,N,01620.7160,E,1,05,1.7,396.7,M,43.7,M,0.0,0000*73
$GPRMC,132232.000,A,4909.6692,N,01620.7160,E,0.00,182.13,190310,,,A*64
$GPVTG,182.13,T,,M,0.00,N,0.0,K,A*04
$GPGGA,132233.000,4909.6692,N,01620.7160,E,1,05,1.7,396.7,M,43.7,M,0.0,0000*72
$GPGSA,A,3,16,20,23,02,10,,,,,,,,2.8,1.7,2.2*39
$GPGSV,3,1,10,13,84,322,,23,59,061,29,04,50,252,,07,36,182,19*73
$GPGSV,3,2,10,20,32,121,22,02,27,308,21,10,16,298,18,16,16,063,33*7E
$GPGSV,3,3,10,32,05,115,28,08,05,196,21*73
$GPRMC,132233.000,A,4909.6692,N,01620.7160,E,0.00,182.13,190310,,,A*65
$GPVTG,182.13,T,,M,0.00,N,0.0,K,A*04
$GPGGA,132234.000,4909.6692,N,01620.7160,E,1,05,1.7,396.7,M,43.7,M,0.0,0000*75
$GPRMC,132234.000,A,4909.6692,N,01620.7160,E,0.00,182.13,190310,,,A*62
$GPVTG,182.13,T,,M,0.00,N,0.0,K,A*04
Na tento provoz LEDka nijak nereaguje.
Takže otázka tedy zní jestli OT1+ posílá GPS nějaký inicializační řetězec s přímou poptávkou formátu dat, nebo pouze poslouchá jak se GPS "vykecává" při továrním nastavení a jestli posílá polohu hned po fixu GPS nebo čeká až na pohyb ?
OK2ZO
Příspěvky: 486
Registrován: ned 08. bře 2009 18:27:54
Bydliště: Adamov
Kontaktovat uživatele:

Re: Open Tracker +

Příspěvek od OK2ZO » pát 19. bře 2010 23:28:46

Zkus preflashovat znovu firmware a znovu nakonfiguruj.. Pokud se nehybes, muze to klidne vysilat 1x/hod. Vse dle nastaveni.. Nicmene po zapnuti, jakmile se chyti GPS to zavysila. Pokud neni chycena, nevysila, pokud nezaskrtnes Don't require GPS fix..
OK2ZO Libor/Adamov
ok2slc
Příspěvky: 115
Registrován: stř 11. bře 2009 8:44:57

Re: Open Tracker +

Příspěvek od ok2slc » pát 19. bře 2010 23:38:56

Ahojte,
takže jsem tu chybu konečně našel.
Bylo to tím tranzistorem, který slouží k převodu RS232 na TTL. Ve finále se mi nezdálo chování toho FETu 2N7000 a tak jsem jej vyštípl a nahradil MAX232 a ejhle, vono to ožilo... Je sice zajímavý, že těm úrovním co z něho lezly MAX232 rozuměl, ale procesor nikoli. Logický stavy byly zřejmě mimo rozsah jeho tolerancí. Díky všem za podporu, doufám, až tam osadím nový tranzistor tak to bude OK.

EDIT:
Takže po výměně tranzistoru je to už konečně OK. Nikdy by mě však nenapadlo, že když OT1+ normálně komunikuje s otwincfg.exe, tak to nemusí zákonitě komunikovat s GPS. Zřejmě není RS232 jako RS232...
Naposledy upravil(a) ok2slc dne sob 20. bře 2010 13:33:52, celkem upraveno 2 x.
OK2ZO
Příspěvky: 486
Registrován: ned 08. bře 2009 18:27:54
Bydliště: Adamov
Kontaktovat uživatele:

Re: Open Tracker +

Příspěvek od OK2ZO » pát 19. bře 2010 23:41:14

No vidis.. to by byl muj dalsi dotaz..
OK2ZO Libor/Adamov
Odpovědět